Time;durP1;ratioP1;P1;durP2;ratioP2;P2;SDS_P1;SDS_P2;PMS_P1;PMS_P2;Temp;Humidity;BMP_temperature;BMP_pressure;BME280_temperature;BME280_humidity;BME280_pressure;Samples;Min_cycle;Max_cycle;Signal;HPM_P1;HPM_P2
2022/05/11 00:03:07;;;;;;;;;;;;;;;;;;8261383;28;20393;-60
2022/05/11 00:07:07;;;;;;;;;;;;;;;;;;8262215;28;20701;-60
2022/05/11 00:11:07;;;;;;;;;;;;;;;;;;8260364;28;19913;-60
2022/05/11 00:15:07;;;;;;;;;;;;;;;;;;8261210;28;19913;-60
2022/05/11 00:19:07;;;;;;;;;;;;;;;;;;8263753;28;19914;-59
2022/05/11 00:23:08;;;;;;;;;;;;;;;;;;8267309;28;19916;-61
2022/05/11 00:27:08;;;;;;;;;;;;;;;;;;8268079;28;19913;-60
2022/05/11 00:31:09;;;;;;;;;;;;;;;;;;8266860;28;20221;-59
2022/05/11 00:35:09;;;;;;;;;;;;;;;;;;8266109;28;19920;-59
2022/05/11 00:39:09;;;;;;;;;;;;;;;;;;8265030;28;19913;-59
2022/05/11 00:43:09;;;;;;;;;;;;;;;;;;8266687;28;20374;-60
2022/05/11 00:47:09;;;;;;;;;;;;;;;;;;8268862;28;20808;-60
2022/05/11 00:51:09;;;;;;;;;;;;;;;;;;8266194;28;19917;-60
2022/05/11 00:55:09;;;;;;;;;;;;;;;;;;8268087;28;19944;-60
2022/05/11 00:59:09;;;;;;;;;;;;;;;;;;8264870;28;19921;-59
2022/05/11 01:03:11;;;;;;;;;;;;;;;;;;8264660;28;19918;-60
2022/05/11 01:07:11;;;;;;;;;;;;;;;;;;8265105;28;19913;-60
2022/05/11 01:11:11;;;;;;;;;;;;;;;;;;8267114;28;20658;-60
2022/05/11 01:15:11;;;;;;;;;;;;;;;;;;8266366;28;20299;-59
2022/05/11 01:19:11;;;;;;;;;;;;;;;;;;8265401;28;20386;-59
2022/05/11 01:23:11;;;;;;;;;;;;;;;;;;8263586;28;19928;-60
2022/05/11 01:27:12;;;;;;;;;;;;;;;;;;8266176;28;19914;-59
2022/05/11 01:31:12;;;;;;;;;;;;;;;;;;8262080;28;19923;-60
2022/05/11 01:35:12;;;;;;;;;;;;;;;;;;8263552;28;19970;-60
2022/05/11 01:39:13;;;;;;;;;;;;;;;;;;8262478;28;20561;-60
2022/05/11 01:43:13;;;;;;;;;;;;;;;;;;8263316;28;19917;-59
2022/05/11 01:47:13;;;;;;;;;;;;;;;;;;8265716;28;20705;-59
2022/05/11 01:51:14;;;;;;;;;;;;;;;;;;8262700;28;19925;-59
2022/05/11 01:55:14;;;;;;;;;;;;;;;;;;8263230;28;19917;-59
2022/05/11 01:59:14;;;;;;;;;;;;;;;;;;8264754;28;19925;-60
2022/05/11 02:03:17;;;;;;;;;;;;;;;;;;8261880;28;19927;-59
2022/05/11 02:11:36;;;;;;;;;;;;;;;;;;8263532;28;19920;-59
2022/05/11 02:15:36;;;;;;;;;;;;;;;;;;8263747;28;19949;-59
2022/05/11 02:19:36;;;;;;;;;;;;;;;;;;8263636;28;20040;-60
2022/05/11 02:23:37;;;;;;;;;;;;;;;;;;8262169;28;19917;-60
2022/05/11 02:27:37;;;;;;;;;;;;;;;;;;8263144;28;19913;-59
2022/05/11 02:31:37;;;;;;;;;;;;;;;;;;8263519;28;20031;-60
2022/05/11 02:35:37;;;;;;;;;;;;;;;;;;8262140;28;19935;-59
2022/05/11 02:39:37;;;;;;;;;;;;;;;;;;8263745;28;19963;-60
2022/05/11 02:43:37;;;;;;;;;;;;;;;;;;8261699;28;20517;-60
2022/05/11 02:47:37;;;;;;;;;;;;;;;;;;8263988;28;19921;-60
2022/05/11 02:51:37;;;;;;;;;;;;;;;;;;8261460;28;19943;-62
2022/05/11 02:55:38;;;;;;;;;;;;;;;;;;8263781;28;20343;-59
2022/05/11 02:59:38;;;;;;;;;;;;;;;;;;8261787;28;19913;-61
2022/05/11 03:03:38;;;;;;;;;;;;;;;;;;8262569;28;20474;-59
2022/05/11 03:07:38;;;;;;;;;;;;;;;;;;8263593;28;20338;-60
2022/05/11 03:11:38;;;;;;;;;;;;;;;;;;8263199;28;19914;-59
2022/05/11 03:15:38;;;;;;;;;;;;;;;;;;8261431;28;20729;-60
2022/05/11 03:19:38;;;;;;;;;;;;;;;;;;8261424;28;20008;-60
2022/05/11 03:23:39;;;;;;;;;;;;;;;;;;8262500;28;19917;-60
2022/05/11 03:27:39;;;;;;;;;;;;;;;;;;8263752;28;19920;-59
2022/05/11 03:31:39;;;;;;;;;;;;;;;;;;8260021;28;19948;-59
2022/05/11 03:35:39;;;;;;;;;;;;;;;;;;8263059;28;19913;-60
2022/05/11 03:39:39;;;;;;;;;;;;;;;;;;8261289;28;19968;-60
2022/05/11 03:43:39;;;;;;;;;;;;;;;;;;8261391;28;19944;-59
2022/05/11 03:47:39;;;;;;;;;;;;;;;;;;8260936;28;20690;-60
2022/05/11 03:51:40;;;;;;;;;;;;;;;;;;8260704;28;20467;-60
2022/05/11 03:55:41;;;;;;;;;;;;;;;;;;8267337;28;19913;-60
2022/05/11 03:59:41;;;;;;;;;;;;;;;;;;8267058;28;19917;-60
2022/05/11 04:03:41;;;;;;;;;;;;;;;;;;8299340;28;19956;-59
2022/05/11 04:07:42;;;;;;;;;;;;;;;;;;8268103;28;20008;-60
2022/05/11 04:11:42;;;;;;;;;;;;;;;;;;8266088;28;19940;-59
2022/05/11 04:15:42;;;;;;;;;;;;;;;;;;8266225;28;19975;-60
2022/05/11 04:19:42;;;;;;;;;;;;;;;;;;8266934;28;20008;-60
2022/05/11 04:23:43;;;;;;;;;;;;;;;;;;8268048;28;20742;-60
2022/05/11 04:27:43;;;;;;;;;;;;;;;;;;8267004;28;19913;-60
2022/05/11 04:31:43;;;;;;;;;;;;;;;;;;8266665;28;19981;-60
2022/05/11 04:35:45;;;;;;;;;;;;;;;;;;8266465;28;19940;-60
2022/05/11 04:39:45;;;;;;;;;;;;;;;;;;8267169;28;19917;-61
2022/05/11 04:43:45;;;;;;;;;;;;;;;;;;8265741;28;19928;-61
2022/05/11 04:47:45;;;;;;;;;;;;;;;;;;8264319;28;19928;-60
2022/05/11 04:51:45;;;;;;;;;;;;;;;;;;8264948;28;20497;-60
2022/05/11 04:55:45;;;;;;;;;;;;;;;;;;8268218;28;20372;-60
2022/05/11 04:59:45;;;;;;;;;;;;;;;;;;8265435;28;19936;-61
2022/05/11 05:03:45;;;;;;;;;;;;;;;;;;8264579;28;19929;-60
2022/05/11 05:07:45;;;;;;;;;;;;;;;;;;8270605;28;19919;-60
2022/05/11 05:11:46;;;;;;;;;;;;;;;;;;8265158;28;20530;-61
2022/05/11 05:15:46;;;;;;;;;;;;;;;;;;8264756;28;20822;-60
2022/05/11 05:19:46;;;;;;;;;;;;;;;;;;8265292;28;19920;-60
2022/05/11 05:23:46;;;;;;;;;;;;;;;;;;8266570;28;20656;-60
2022/05/11 05:27:46;;;;;;;;;;;;;;;;;;8263517;28;20500;-60
2022/05/11 05:31:46;;;;;;;;;;;;;;;;;;8260737;28;19917;-59
2022/05/11 05:35:46;;;;;;;;;;;;;;;;;;8264354;28;20172;-60
2022/05/11 05:39:46;;;;;;;;;;;;;;;;;;8264559;28;19971;-61
2022/05/11 05:43:46;;;;;;;;;;;;;;;;;;8263517;28;20822;-60
2022/05/11 05:47:47;;;;;;;;;;;;;;;;;;8262748;28;19955;-59
2022/05/11 05:51:47;;;;;;;;;;;;;;;;;;8263393;28;19991;-60
2022/05/11 05:55:47;;;;;;;;;;;;;;;;;;8263713;28;20766;-60
2022/05/11 05:59:48;;;;;;;;;;;;;;;;;;8263637;28;20857;-60
2022/05/11 06:03:48;;;;;;;;;;;;;;;;;;8260917;28;20366;-60
2022/05/11 06:07:48;;;;;;;;;;;;;;;;;;8264569;28;19917;-60
2022/05/11 06:11:49;;;;;;;;;;;;;;;;;;8264230;28;20003;-61
2022/05/11 06:15:49;;;;;;;;;;;;;;;;;;8262958;28;20051;-61
2022/05/11 06:19:49;;;;;;;;;;;;;;;;;;8262715;28;20056;-60
2022/05/11 06:23:49;;;;;;;;;;;;;;;;;;8263028;28;20025;-61
2022/05/11 06:27:49;;;;;;;;;;;;;;;;;;8261363;28;19917;-60
2022/05/11 06:31:49;;;;;;;;;;;;;;;;;;8263245;28;19917;-60
2022/05/11 06:35:49;;;;;;;;;;;;;;;;;;8263122;28;19913;-60
2022/05/11 06:39:50;;;;;;;;;;;;;;;;;;8263229;28;19920;-61
2022/05/11 06:43:51;;;;;;;;;;;;;;;;;;8260758;28;19921;-61
2022/05/11 06:47:53;;;;;;;;;;;;;;;;;;8262907;28;19924;-60
2022/05/11 06:51:53;;;;;;;;;;;;;;;;;;8261202;28;20347;-61
2022/05/11 07:00:11;;;;;;;;;;;;;;;;;;8251582;28;20560;-60
2022/05/11 07:04:11;;;;;;;;;;;;;;;;;;8254806;28;20035;-60
2022/05/11 07:08:12;;;;;;;;;;;;;;;;;;8257500;28;19909;-60
2022/05/11 07:12:18;;;;;;;;;;;;;;;;;;8254117;28;19924;-60
2022/05/11 07:16:18;;;;;;;;;;;;;;;;;;8255315;28;19917;-60
2022/05/11 07:20:18;;;;;;;;;;;;;;;;;;8252658;28;19964;-60
2022/05/11 07:24:18;;;;;;;;;;;;;;;;;;8253680;28;19913;-60
2022/05/11 07:28:18;;;;;;;;;;;;;;;;;;8256774;28;20777;-60
2022/05/11 07:32:19;;;;;;;;;;;;;;;;;;8258763;28;19917;-60
2022/05/11 07:36:20;;;;;;;;;;;;;;;;;;8259952;28;20813;-61
2022/05/11 07:40:21;;;;;;;;;;;;;;;;;;8261466;28;19910;-61
2022/05/11 07:44:21;;;;;;;;;;;;;;;;;;8261716;28;19959;-60
2022/05/11 07:48:21;;;;;;;;;;;;;;;;;;8260762;28;20367;-61
2022/05/11 07:52:21;;;;;;;;;;;;;;;;;;8261923;28;19948;-61
2022/05/11 08:00:40;;;;;;;;;;;;;;;;;;8260575;28;20022;-60
2022/05/11 08:04:41;;;;;;;;;;;;;;;;;;8258101;28;19917;-60
2022/05/11 08:08:41;;;;;;;;;;;;;;;;;;8259411;28;19914;-62
2022/05/11 08:12:41;;;;;;;;;;;;;;;;;;8258320;28;19921;-60
2022/05/11 08:16:41;;;;;;;;;;;;;;;;;;8247946;28;19917;-60
2022/05/11 08:20:42;;;;;;;;;;;;;;;;;;8251622;28;19913;-60
2022/05/11 08:24:42;;;;;;;;;;;;;;;;;;8251310;28;19917;-60
2022/05/11 08:28:42;;;;;;;;;;;;;;;;;;8250903;28;19913;-60
2022/05/11 08:37:01;;;;;;;;;;;;;;;;;;8249764;28;19959;-60
2022/05/11 08:41:01;;;;;;;;;;;;;;;;;;8254472;28;19957;-60
2022/05/11 08:45:02;;;;;;;;;;;;;;;;;;8256354;28;19956;-60
2022/05/11 08:49:02;;;;;;;;;;;;;;;;;;8255861;28;19943;-60
2022/05/11 08:53:02;;;;;;;;;;;;;;;;;;8257171;28;20451;-61
2022/05/11 08:57:02;;;;;;;;;;;;;;;;;;8258447;28;20418;-60
2022/05/11 09:01:02;;;;;;;;;;;;;;;;;;8255811;28;19921;-60
2022/05/11 09:05:02;;;;;;;;;;;;;;;;;;8258657;28;20350;-60
2022/05/11 09:09:03;;;;;;;;;;;;;;;;;;8256845;28;19913;-60
2022/05/11 09:13:03;;;;;;;;;;;;;;;;;;8256198;28;20379;-60
2022/05/11 09:17:03;;;;;;;;;;;;;;;;;;8254565;28;20387;-60
2022/05/11 09:21:03;;;;;;;;;;;;;;;;;;8254404;28;20397;-60
2022/05/11 09:25:03;;;;;;;;;;;;;;;;;;8256229;28;19921;-60
2022/05/11 09:29:03;;;;;;;;;;;;;;;;;;8255636;28;19909;-60
2022/05/11 09:33:03;;;;;;;;;;;;;;;;;;8253061;28;20753;-60
2022/05/11 09:37:03;;;;;;;;;;;;;;;;;;8256175;28;20007;-60
2022/05/11 09:41:03;;;;;;;;;;;;;;;;;;8261510;28;19920;-60
2022/05/11 09:45:04;;;;;;;;;;;;;;;;;;8261659;28;19914;-61
2022/05/11 09:49:07;;;;;;;;;;;;;;;;;;8261089;28;19910;-62
2022/05/11 09:53:07;;;;;;;;;;;;;;;;;;8256144;28;19913;-61
2022/05/11 09:57:08;;;;;;;;;;;;;;;;;;8254225;28;20420;-61
2022/05/11 10:01:08;;;;;;;;;;;;;;;;;;8253586;28;19947;-61
2022/05/11 10:05:10;;;;;;;;;;;;;;;;;;8252748;28;20036;-61
2022/05/11 10:09:10;;;;;;;;;;;;;;;;;;8254895;28;20040;-61
2022/05/11 10:13:10;;;;;;;;;;;;;;;;;;8255516;28;19912;-61
2022/05/11 10:25:48;;;;;;;;;;;;;;;;;;8253646;28;19987;-61
2022/05/11 10:29:49;;;;;;;;;;;;;;;;;;8253600;28;19913;-61
2022/05/11 10:33:49;;;;;;;;;;;;;;;;;;8253329;28;20280;-61
2022/05/11 10:37:49;;;;;;;;;;;;;;;;;;8253550;28;19920;-61
2022/05/11 10:41:49;;;;;;;;;;;;;;;;;;8253416;28;19917;-61
2022/05/11 10:45:49;;;;;;;;;;;;;;;;;;8282679;28;20343;-61
2022/05/11 10:49:49;;;;;;;;;;;;;;;;;;8251836;28;19940;-61
2022/05/11 10:53:49;;;;;;;;;;;;;;;;;;8282260;28;19921;-61
2022/05/11 10:57:49;;;;;;;;;;;;;;;;;;8252973;28;19979;-61
2022/05/11 11:01:49;;;;;;;;;;;;;;;;;;8251916;28;19933;-61
2022/05/11 11:07:11;;;;;;;;;;;;;;;;;;8251854;28;19921;-61
2022/05/11 11:10:09;;;;;;;;;;;;;;;;;;8259064;28;19909;-60
2022/05/11 11:14:10;;;;;;;;;;;;;;;;;;8261323;28;20114;-61
2022/05/11 11:18:11;;;;;;;;;;;;;;;;;;8261055;28;19928;-61
2022/05/11 11:22:11;;;;;;;;;;;;;;;;;;8260183;28;20350;-61
2022/05/11 11:26:11;;;;;;;;;;;;;;;;;;8264275;28;19914;-61
2022/05/11 11:30:12;;;;;;;;;;;;;;;;;;8259838;28;19913;-61
2022/05/11 11:34:12;;;;;;;;;;;;;;;;;;8259960;28;19994;-61
2022/05/11 11:38:12;;;;;;;;;;;;;;;;;;8262053;28;19952;-61
2022/05/11 11:42:13;;;;;;;;;;;;;;;;;;8292092;28;20338;-61
2022/05/11 11:46:13;;;;;;;;;;;;;;;;;;8255513;28;20142;-61
2022/05/11 11:50:13;;;;;;;;;;;;;;;;;;8252383;28;19940;-61
2022/05/11 11:54:13;;;;;;;;;;;;;;;;;;8247900;28;19914;-61
2022/05/11 11:58:13;;;;;;;;;;;;;;;;;;8249748;28;20367;-61
2022/05/11 12:02:13;;;;;;;;;;;;;;;;;;8272072;28;19924;-61
2022/05/11 12:15:03;;;;;;;;;;;;;;;;;;8252990;28;19916;-61
2022/05/11 12:19:03;;;;;;;;;;;;;;;;;;8205489;28;19918;-61
2022/05/11 12:23:04;;;;;;;;;;;;;;;;;;8210982;28;19917;-62
2022/05/11 12:27:04;;;;;;;;;;;;;;;;;;8218359;28;20620;-62
2022/05/11 12:31:05;;;;;;;;;;;;;;;;;;8217201;28;19925;-62
2022/05/11 12:35:05;;;;;;;;;;;;;;;;;;8231854;28;20814;-61
2022/05/11 12:39:05;;;;;;;;;;;;;;;;;;8231092;28;19918;-61
2022/05/11 12:43:08;;;;;;;;;;;;;;;;;;8228518;28;19965;-61
2022/05/11 12:47:09;;;;;;;;;;;;;;;;;;8231674;28;19925;-61
2022/05/11 12:51:09;;;;;;;;;;;;;;;;;;8230328;28;20076;-62
2022/05/11 12:55:09;;;;;;;;;;;;;;;;;;8232302;28;19913;-60
2022/05/11 12:59:10;;;;;;;;;;;;;;;;;;8231689;28;19914;-61
2022/05/11 13:03:10;;;;;;;;;;;;;;;;;;8254296;28;20447;-61
2022/05/11 13:07:12;;;;;;;;;;;;;;;;;;8263101;28;19960;-61
2022/05/11 13:11:12;;;;;;;;;;;;;;;;;;8263099;28;19921;-61
2022/05/11 13:15:12;;;;;;;;;;;;;;;;;;8262728;28;19966;-60
2022/05/11 13:19:12;;;;;;;;;;;;;;;;;;8232084;28;19913;-60
2022/05/11 13:23:13;;;;;;;;;;;;;;;;;;8230925;28;20358;-60
2022/05/11 13:27:13;;;;;;;;;;;;;;;;;;8229204;28;20704;-61
2022/05/11 13:31:13;;;;;;;;;;;;;;;;;;8231043;28;19918;-61
2022/05/11 13:35:13;;;;;;;;;;;;;;;;;;8230428;28;19910;-61
2022/05/11 13:39:14;;;;;;;;;;;;;;;;;;8231319;28;20833;-61
2022/05/11 13:43:14;;;;;;;;;;;;;;;;;;8230750;28;20630;-61
2022/05/11 13:51:37;;;;;;;;;;;;;;;;;;8229084;28;19976;-61
2022/05/11 13:55:37;;;;;;;;;;;;;;;;;;8229841;28;19996;-60
2022/05/11 13:59:37;;;;;;;;;;;;;;;;;;8230076;28;19924;-60
2022/05/11 14:03:37;;;;;;;;;;;;;;;;;;8228736;28;19918;-60
2022/05/11 14:07:37;;;;;;;;;;;;;;;;;;8227610;28;19917;-60
2022/05/11 14:11:38;;;;;;;;;;;;;;;;;;8230085;28;19914;-60
2022/05/11 14:15:38;;;;;;;;;;;;;;;;;;8233819;28;19917;-60
2022/05/11 14:19:38;;;;;;;;;;;;;;;;;;8260860;28;19920;-60
2022/05/11 14:23:39;;;;;;;;;;;;;;;;;;8262119;28;20923;-61
2022/05/11 14:27:39;;;;;;;;;;;;;;;;;;8262890;28;19913;-61
2022/05/11 14:31:40;;;;;;;;;;;;;;;;;;8251718;28;19917;-61
2022/05/11 14:35:40;;;;;;;;;;;;;;;;;;8229948;28;19984;-61
2022/05/11 14:39:42;;;;;;;;;;;;;;;;;;8228031;28;20672;-60
2022/05/11 14:43:42;;;;;;;;;;;;;;;;;;8228001;28;19909;-60
2022/05/11 14:47:42;;;;;;;;;;;;;;;;;;8227586;28;19929;-61
2022/05/11 14:51:42;;;;;;;;;;;;;;;;;;8224277;28;19913;-61
2022/05/11 14:55:43;;;;;;;;;;;;;;;;;;8227224;28;20048;-60
2022/05/11 15:04:01;;;;;;;;;;;;;;;;;;8255742;28;20745;-60
2022/05/11 15:08:01;;;;;;;;;;;;;;;;;;8265169;28;19913;-59
2022/05/11 15:16:20;;;;;;;;;;;;;;;;;;8259717;28;20412;-60
2022/05/11 15:20:21;;;;;;;;;;;;;;;;;;8259949;28;19913;-60
2022/05/11 15:24:21;;;;;;;;;;;;;;;;;;8259954;28;20122;-61
2022/05/11 15:28:21;;;;;;;;;;;;;;;;;;8259381;28;19913;-60
2022/05/11 15:32:21;;;;;;;;;;;;;;;;;;8260411;28;19917;-60
2022/05/11 15:36:21;;;;;;;;;;;;;;;;;;8258814;28;19913;-60
2022/05/11 15:40:25;;;;;;;;;;;;;;;;;;8259794;28;19913;-61
2022/05/11 15:44:26;;;;;;;;;;;;;;;;;;8260573;28;19924;-61
2022/05/11 15:48:26;;;;;;;;;;;;;;;;;;8230912;28;20700;-60
2022/05/11 15:52:28;;;;;;;;;;;;;;;;;;8232662;28;19918;-60
2022/05/11 15:56:28;;;;;;;;;;;;;;;;;;8233212;28;19914;-60
2022/05/11 16:00:29;;;;;;;;;;;;;;;;;;8232682;28;19948;-60
2022/05/11 16:04:29;;;;;;;;;;;;;;;;;;8232892;28;19924;-60
2022/05/11 16:08:29;;;;;;;;;;;;;;;;;;8231769;28;19909;-60
2022/05/11 16:12:29;;;;;;;;;;;;;;;;;;8231612;28;20151;-61
2022/05/11 16:16:31;;;;;;;;;;;;;;;;;;8232812;28;19918;-61
2022/05/11 16:20:31;;;;;;;;;;;;;;;;;;8229467;28;20318;-61
2022/05/11 16:24:31;;;;;;;;;;;;;;;;;;8234616;28;19919;-63
2022/05/11 16:28:31;;;;;;;;;;;;;;;;;;8234836;28;19914;-61
2022/05/11 16:32:31;;;;;;;;;;;;;;;;;;8252440;28;19979;-61
2022/05/11 16:36:31;;;;;;;;;;;;;;;;;;8264876;28;20359;-61
2022/05/11 16:40:33;;;;;;;;;;;;;;;;;;8264351;28;20009;-61
2022/05/11 16:44:34;;;;;;;;;;;;;;;;;;8265571;28;19917;-60
2022/05/11 16:48:34;;;;;;;;;;;;;;;;;;8264547;28;19924;-61
2022/05/11 16:52:34;;;;;;;;;;;;;;;;;;8263987;28;19913;-60
2022/05/11 16:56:34;;;;;;;;;;;;;;;;;;8264476;28;20379;-60
2022/05/11 17:00:34;;;;;;;;;;;;;;;;;;8259943;28;20436;-61
2022/05/11 17:04:35;;;;;;;;;;;;;;;;;;8230550;28;19925;-62
2022/05/11 17:08:36;;;;;;;;;;;;;;;;;;8232744;28;19949;-61
2022/05/11 17:12:36;;;;;;;;;;;;;;;;;;8230930;28;19913;-63
2022/05/11 17:16:36;;;;;;;;;;;;;;;;;;8230185;28;19937;-61
2022/05/11 17:20:40;;;;;;;;;;;;;;;;;;8231282;28;19913;-63
2022/05/11 17:24:40;;;;;;;;;;;;;;;;;;8230981;28;20647;-62
2022/05/11 17:28:40;;;;;;;;;;;;;;;;;;8231062;28;19940;-60
2022/05/11 17:32:40;;;;;;;;;;;;;;;;;;8228892;28;20392;-62
2022/05/11 17:36:40;;;;;;;;;;;;;;;;;;8229736;28;20698;-61
2022/05/11 17:40:43;;;;;;;;;;;;;;;;;;8228437;28;20011;-61
2022/05/11 17:44:43;;;;;;;;;;;;;;;;;;8225878;28;20668;-60
2022/05/11 17:48:43;;;;;;;;;;;;;;;;;;8249909;28;19921;-60
2022/05/11 17:52:43;;;;;;;;;;;;;;;;;;8253787;28;20317;-60
2022/05/11 17:56:43;;;;;;;;;;;;;;;;;;8254726;28;19916;-60
2022/05/11 18:00:45;;;;;;;;;;;;;;;;;;8250785;28;20011;-60
2022/05/11 18:04:46;;;;;;;;;;;;;;;;;;8253557;28;20415;-60
2022/05/11 18:08:46;;;;;;;;;;;;;;;;;;8252914;28;19917;-60
2022/05/11 18:12:46;;;;;;;;;;;;;;;;;;8252416;28;20752;-60
2022/05/11 18:16:47;;;;;;;;;;;;;;;;;;8252883;28;20210;-60
2022/05/11 18:20:48;;;;;;;;;;;;;;;;;;8250671;28;21023;-61
2022/05/11 18:24:48;;;;;;;;;;;;;;;;;;8252899;28;20779;-59
2022/05/11 18:28:48;;;;;;;;;;;;;;;;;;8253602;28;20211;-60
2022/05/11 18:32:50;;;;;;;;;;;;;;;;;;8250611;28;20111;-60
2022/05/11 18:36:50;;;;;;;;;;;;;;;;;;8251962;28;20003;-60
2022/05/11 18:40:50;;;;;;;;;;;;;;;;;;8252258;28;19917;-60
2022/05/11 18:44:50;;;;;;;;;;;;;;;;;;8252871;28;20489;-60
2022/05/11 18:48:50;;;;;;;;;;;;;;;;;;8250925;28;20277;-60
2022/05/11 18:52:50;;;;;;;;;;;;;;;;;;8251113;28;20003;-60
2022/05/11 18:56:51;;;;;;;;;;;;;;;;;;8252659;28;19997;-60
2022/05/11 19:00:51;;;;;;;;;;;;;;;;;;8250323;28;20683;-60
2022/05/11 19:04:51;;;;;;;;;;;;;;;;;;8248517;28;19917;-60
2022/05/11 19:08:51;;;;;;;;;;;;;;;;;;8247723;28;20013;-60
2022/05/11 19:12:51;;;;;;;;;;;;;;;;;;8250135;28;20274;-60
2022/05/11 19:16:53;;;;;;;;;;;;;;;;;;8249694;28;20354;-60
2022/05/11 19:20:53;;;;;;;;;;;;;;;;;;8250488;28;19913;-60
2022/05/11 19:24:53;;;;;;;;;;;;;;;;;;8256171;28;20390;-61
2022/05/11 19:28:53;;;;;;;;;;;;;;;;;;8258286;28;19921;-61
2022/05/11 19:32:54;;;;;;;;;;;;;;;;;;8257266;28;20349;-60
2022/05/11 19:36:54;;;;;;;;;;;;;;;;;;8257185;28;20012;-60
2022/05/11 19:40:54;;;;;;;;;;;;;;;;;;8258277;28;19941;-61
2022/05/11 19:44:54;;;;;;;;;;;;;;;;;;8257351;28;19955;-61
2022/05/11 19:48:54;;;;;;;;;;;;;;;;;;8256347;28;20008;-61
2022/05/11 19:52:54;;;;;;;;;;;;;;;;;;8261344;28;19920;-60
2022/05/11 19:56:55;;;;;;;;;;;;;;;;;;8258136;28;20222;-60
2022/05/11 20:00:56;;;;;;;;;;;;;;;;;;8259892;28;19932;-59
2022/05/11 20:04:56;;;;;;;;;;;;;;;;;;8260424;28;19964;-60
2022/05/11 20:08:56;;;;;;;;;;;;;;;;;;8262109;28;19913;-61
2022/05/11 20:12:57;;;;;;;;;;;;;;;;;;8258341;28;20521;-61
2022/05/11 20:16:57;;;;;;;;;;;;;;;;;;8262256;28;19922;-61
2022/05/11 20:20:57;;;;;;;;;;;;;;;;;;8259053;28;19913;-60
2022/05/11 20:24:58;;;;;;;;;;;;;;;;;;8261916;28;19921;-61
2022/05/11 20:28:58;;;;;;;;;;;;;;;;;;8260509;28;19918;-60
2022/05/11 20:37:18;;;;;;;;;;;;;;;;;;8264830;28;19921;-60
2022/05/11 20:41:18;;;;;;;;;;;;;;;;;;8266861;28;19971;-60
2022/05/11 20:45:18;;;;;;;;;;;;;;;;;;8266672;28;19921;-60
2022/05/11 20:49:18;;;;;;;;;;;;;;;;;;8267874;28;19920;-61
2022/05/11 20:53:19;;;;;;;;;;;;;;;;;;8266304;28;20001;-60
2022/05/11 20:57:19;;;;;;;;;;;;;;;;;;8267325;28;19928;-61
2022/05/11 21:01:19;;;;;;;;;;;;;;;;;;8265386;28;19920;-61
2022/05/11 21:05:19;;;;;;;;;;;;;;;;;;8268224;28;20754;-60
2022/05/11 21:09:19;;;;;;;;;;;;;;;;;;8266752;28;19971;-60
2022/05/11 21:13:20;;;;;;;;;;;;;;;;;;8265864;28;20550;-61
2022/05/11 21:17:20;;;;;;;;;;;;;;;;;;8265558;28;19917;-60
2022/05/11 21:21:22;;;;;;;;;;;;;;;;;;8263685;28;19913;-61
2022/05/11 21:25:22;;;;;;;;;;;;;;;;;;8265063;28;19941;-61
2022/05/11 21:29:22;;;;;;;;;;;;;;;;;;8265073;28;19992;-60
2022/05/11 21:33:22;;;;;;;;;;;;;;;;;;8271799;28;19971;-60
2022/05/11 21:37:22;;;;;;;;;;;;;;;;;;8265011;28;19917;-60
2022/05/11 21:41:23;;;;;;;;;;;;;;;;;;8266257;28;19919;-60
2022/05/11 21:45:23;;;;;;;;;;;;;;;;;;8264883;28;19932;-61
2022/05/11 21:49:23;;;;;;;;;;;;;;;;;;8263963;28;19913;-60
2022/05/11 21:53:23;;;;;;;;;;;;;;;;;;8265546;28;20567;-61
2022/05/11 21:57:23;;;;;;;;;;;;;;;;;;8265907;28;19914;-60
2022/05/11 22:01:23;;;;;;;;;;;;;;;;;;8264153;28;19920;-60
2022/05/11 22:05:23;;;;;;;;;;;;;;;;;;8265618;28;20572;-60
2022/05/11 22:09:23;;;;;;;;;;;;;;;;;;8264487;28;19987;-60
2022/05/11 22:13:24;;;;;;;;;;;;;;;;;;8264434;28;20624;-61
2022/05/11 22:17:24;;;;;;;;;;;;;;;;;;8263002;28;20750;-60
2022/05/11 22:21:24;;;;;;;;;;;;;;;;;;8262778;28;19963;-59
2022/05/11 22:25:28;;;;;;;;;;;;;;;;;;8263874;28;19921;-60
2022/05/11 22:29:29;;;;;;;;;;;;;;;;;;8263366;28;19913;-60
2022/05/11 22:33:29;;;;;;;;;;;;;;;;;;8261944;28;20693;-61
2022/05/11 22:37:30;;;;;;;;;;;;;;;;;;8264747;28;19913;-60
2022/05/11 22:41:30;;;;;;;;;;;;;;;;;;8264294;28;19910;-59
2022/05/11 22:45:30;;;;;;;;;;;;;;;;;;8264066;28;19928;-60
2022/05/11 22:49:30;;;;;;;;;;;;;;;;;;8262351;28;19913;-59
2022/05/11 22:53:30;;;;;;;;;;;;;;;;;;8263544;28;20428;-59
2022/05/11 22:57:30;;;;;;;;;;;;;;;;;;8264295;28;19909;-60
2022/05/11 23:01:31;;;;;;;;;;;;;;;;;;8261923;28;20075;-60
2022/05/11 23:05:31;;;;;;;;;;;;;;;;;;8260524;28;20003;-61
2022/05/11 23:09:32;;;;;;;;;;;;;;;;;;8263839;28;19971;-59
2022/05/11 23:13:32;;;;;;;;;;;;;;;;;;8262120;28;19913;-59
2022/05/11 23:17:32;;;;;;;;;;;;;;;;;;8262779;28;20411;-60
2022/05/11 23:21:32;;;;;;;;;;;;;;;;;;8261957;28;19966;-60
2022/05/11 23:25:33;;;;;;;;;;;;;;;;;;8261140;28;19924;-59
2022/05/11 23:29:33;;;;;;;;;;;;;;;;;;8261714;28;20587;-60
2022/05/11 23:33:33;;;;;;;;;;;;;;;;;;8262643;28;20374;-60
2022/05/11 23:37:34;;;;;;;;;;;;;;;;;;8262075;28;20376;-59
2022/05/11 23:41:34;;;;;;;;;;;;;;;;;;8267281;28;19913;-60
2022/05/11 23:45:34;;;;;;;;;;;;;;;;;;8261064;28;20011;-61
2022/05/11 23:49:34;;;;;;;;;;;;;;;;;;8262087;28;19913;-60
2022/05/11 23:53:34;;;;;;;;;;;;;;;;;;8263023;28;19913;-59
2022/05/11 23:57:34;;;;;;;;;;;;;;;;;;8261336;28;19913;-59
